Nefterudovoz-29m — UIMI — position and weather

sailwx.info

Track history (hours):
 
Tides and Currents Weather Stations Pressure Air Temp Water Temp Dewpoint Dewpoint Depression Visibility Wind Speed Wind Dir Waves Ship Positions

Nefterudovoz-29m

Last reported at 2016-May-27 19:33 UTC. Time now 2016-May-28 09:57 UTC.
Position N 47°00' E 038°13'.

Length 119 m; draft 2.4 m.

Type: Cargo ship. MMSI: 273345300.

Date/timePositionNaut miles runAvg speedWind from/ knotsBaromVisibWave heightAir tempDewpointWater temp
2016-May-27 19:33N 47°00' E 038°13'  
2016-May-24 22:08N 47°02' E 038°42'4 6.8
2016-May-24 21:31N 46°60' E 038°37'7 7.2
2016-May-24 20:33N 47°00' E 038°27'14 7.2
2016-May-24 18:33N 46°58' E 038°06'106 7.5
2016-May-24 04:28N 45°28' E 036°46'7 7.6
2016-May-24 03:34N 45°22' E 036°40'24 0.7
2016-May-22 19:23N 45°00' E 036°27'12 6.6
2016-May-22 17:32N 45°12' E 036°28'7 6.9
2016-May-22 16:32N 45°19' E 036°31'6 6.3
2016-May-22 15:34N 45°21' E 036°39'119 6.6
2016-May-21 21:33N 47°00' E 038°14'7 7.0
2016-May-21 20:30N 47°01' E 038°25'10 0.3
2016-May-20 04:33N 47°01' E 038°40'7 7.0
2016-May-20 03:33N 47°00' E 038°30'7 7.2
2016-May-20 02:33N 47°00' E 038°19'7 6.9
2016-May-20 01:33N 46°58' E 038°09'7 7.1
2016-May-20 00:33N 46°55' E 037°60'7 7.5
2016-May-19 23:33N 46°53' E 037°49'90 6.9
2016-May-19 10:32N 45°33' E 036°49'7 7.2
2016-May-19 09:33N 45°28' E 036°43'7 7.0
2016-May-19 08:33N 45°21' E 036°39'7 7.5
2016-May-19 07:33N 45°18' E 036°30'8 7.2
2016-May-19 06:31N 45°11' E 036°28'7 7.4
2016-May-19 05:33N 45°04' E 036°30'65 7.2
2016-May-18 20:33N 44°43' E 035°04'8 7.8
2016-May-18 19:34N 44°40' E 034°53'8 7.7
2016-May-18 18:34N 44°36' E 034°44'7 7.3
2016-May-18 17:33N 44°32' E 034°35'8 7.6
2016-May-18 16:34N 44°29' E 034°26'8 7.8
2016-May-18 15:34N 44°25' E 034°17'38 7.5
2016-May-18 10:33N 44°28' E 033°24'7 6.7
2016-May-18 09:33N 44°35' E 033°21'  
Track history (hours):
 
Tides and Currents Weather Stations Pressure Air Temp Water Temp Dewpoint Dewpoint Depression Visibility Wind Speed Wind Dir Waves Ship Positions

Nefterudovoz-29m

Last reported at 2016-May-27 19:33 UTC. Time now 2016-May-28 09:57 UTC.
Position N 47°00' E 038°13'.

Length 119 m; draft 2.4 m.

Type: Cargo ship. MMSI: 273345300.

Date/timePositionNaut miles runAvg speedWind from/ knotsBaromVisibWave heightAir tempDewpointWater temp
2016-May-27 19:33N 47°00' E 038°13'  
2016-May-24 22:08N 47°02' E 038°42'4 6.8
2016-May-24 21:31N 46°60' E 038°37'7 7.2
2016-May-24 20:33N 47°00' E 038°27'14 7.2
2016-May-24 18:33N 46°58' E 038°06'106 7.5
2016-May-24 04:28N 45°28' E 036°46'7 7.6
2016-May-24 03:34N 45°22' E 036°40'24 0.7
2016-May-22 19:23N 45°00' E 036°27'12 6.6
2016-May-22 17:32N 45°12' E 036°28'7 6.9
2016-May-22 16:32N 45°19' E 036°31'6 6.3
2016-May-22 15:34N 45°21' E 036°39'119 6.6
2016-May-21 21:33N 47°00' E 038°14'7 7.0
2016-May-21 20:30N 47°01' E 038°25'10 0.3
2016-May-20 04:33N 47°01' E 038°40'7 7.0
2016-May-20 03:33N 47°00' E 038°30'7 7.2
2016-May-20 02:33N 47°00' E 038°19'7 6.9
2016-May-20 01:33N 46°58' E 038°09'7 7.1
2016-May-20 00:33N 46°55' E 037°60'7 7.5
2016-May-19 23:33N 46°53' E 037°49'90 6.9
2016-May-19 10:32N 45°33' E 036°49'7 7.2
2016-May-19 09:33N 45°28' E 036°43'7 7.0
2016-May-19 08:33N 45°21' E 036°39'7 7.5
2016-May-19 07:33N 45°18' E 036°30'8 7.2
2016-May-19 06:31N 45°11' E 036°28'7 7.4
2016-May-19 05:33N 45°04' E 036°30'65 7.2
2016-May-18 20:33N 44°43' E 035°04'8 7.8
2016-May-18 19:34N 44°40' E 034°53'8 7.7
2016-May-18 18:34N 44°36' E 034°44'7 7.3
2016-May-18 17:33N 44°32' E 034°35'8 7.6
2016-May-18 16:34N 44°29' E 034°26'8 7.8
2016-May-18 15:34N 44°25' E 034°17'38 7.5
2016-May-18 10:33N 44°28' E 033°24'7 6.7
2016-May-18 09:33N 44°35' E 033°21'  

Dump ship's entire track history